sensor_id;sensor_type;location;lat;lon;timestamp;temperature;humidity
12819;DHT22;6474;53.474;9.894;2022-10-22T00:01:20;15.10;89.60
12819;DHT22;6474;53.474;9.894;2022-10-22T00:03:50;15.20;89.70
12819;DHT22;6474;53.474;9.894;2022-10-22T00:06:19;15.10;89.60
12819;DHT22;6474;53.474;9.894;2022-10-22T00:08:47;15.10;89.60
12819;DHT22;6474;53.474;9.894;2022-10-22T00:11:18;15.10;89.60
12819;DHT22;6474;53.474;9.894;2022-10-22T00:13:46;15.20;89.70
12819;DHT22;6474;53.474;9.894;2022-10-22T00:16:14;15.10;89.60
12819;DHT22;6474;53.474;9.894;2022-10-22T00:18:44;15.20;89.70
12819;DHT22;6474;53.474;9.894;2022-10-22T00:21:12;15.20;89.80
12819;DHT22;6474;53.474;9.894;2022-10-22T00:23:40;15.10;89.70
12819;DHT22;6474;53.474;9.894;2022-10-22T00:26:11;15.10;89.70
12819;DHT22;6474;53.474;9.894;2022-10-22T00:28:40;15.10;89.70
12819;DHT22;6474;53.474;9.894;2022-10-22T00:31:08;15.10;89.70
12819;DHT22;6474;53.474;9.894;2022-10-22T00:33:36;15.10;89.70
12819;DHT22;6474;53.474;9.894;2022-10-22T00:36:04;15.10;89.70
12819;DHT22;6474;53.474;9.894;2022-10-22T00:38:32;15.10;89.70
12819;DHT22;6474;53.474;9.894;2022-10-22T00:41:00;15.10;89.80
12819;DHT22;6474;53.474;9.894;2022-10-22T00:43:27;15.10;89.80
12819;DHT22;6474;53.474;9.894;2022-10-22T00:45:56;15.10;89.80
12819;DHT22;6474;53.474;9.894;2022-10-22T00:48:26;15.10;89.80
12819;DHT22;6474;53.474;9.894;2022-10-22T00:50:57;15.10;89.80
12819;DHT22;6474;53.474;9.894;2022-10-22T00:53:28;15.10;89.90
12819;DHT22;6474;53.474;9.894;2022-10-22T00:55:58;15.10;89.80
12819;DHT22;6474;53.474;9.894;2022-10-22T00:58:28;15.10;89.80
12819;DHT22;6474;53.474;9.894;2022-10-22T01:00:57;15.10;89.80
12819;DHT22;6474;53.474;9.894;2022-10-22T01:03:26;15.10;89.80
12819;DHT22;6474;53.474;9.894;2022-10-22T01:05:57;15.10;89.80
12819;DHT22;6474;53.474;9.894;2022-10-22T01:08:29;15.10;89.80
12819;DHT22;6474;53.474;9.894;2022-10-22T01:11:07;15.10;89.70
12819;DHT22;6474;53.474;9.894;2022-10-22T01:13:48;15.10;89.80
12819;DHT22;6474;53.474;9.894;2022-10-22T01:16:24;15.10;89.70
12819;DHT22;6474;53.474;9.894;2022-10-22T01:19:00;15.10;89.70
12819;DHT22;6474;53.474;9.894;2022-10-22T01:21:35;15.00;89.60
12819;DHT22;6474;53.474;9.894;2022-10-22T01:24:18;15.00;89.60
12819;DHT22;6474;53.474;9.894;2022-10-22T01:27:06;14.90;89.50
12819;DHT22;6474;53.474;9.894;2022-10-22T01:29:42;14.90;89.50
12819;DHT22;6474;53.474;9.894;2022-10-22T01:32:13;14.90;89.50
12819;DHT22;6474;53.474;9.894;2022-10-22T01:34:45;14.80;89.40
12819;DHT22;6474;53.474;9.894;2022-10-22T01:37:19;14.80;89.40
12819;DHT22;6474;53.474;9.894;2022-10-22T01:39:49;14.70;89.30
12819;DHT22;6474;53.474;9.894;2022-10-22T01:42:19;14.70;89.40
12819;DHT22;6474;53.474;9.894;2022-10-22T01:45:10;14.70;89.50
12819;DHT22;6474;53.474;9.894;2022-10-22T01:48:23;14.60;89.40
12819;DHT22;6474;53.474;9.894;2022-10-22T01:51:24;14.60;89.40
12819;DHT22;6474;53.474;9.894;2022-10-22T01:54:33;14.50;89.40
12819;DHT22;6474;53.474;9.894;2022-10-22T01:57:28;14.50;89.50
12819;DHT22;6474;53.474;9.894;2022-10-22T02:00:34;14.40;89.50
12819;DHT22;6474;53.474;9.894;2022-10-22T02:03:25;14.40;89.60
12819;DHT22;6474;53.474;9.894;2022-10-22T02:06:14;14.30;89.50
12819;DHT22;6474;53.474;9.894;2022-10-22T02:08:44;14.30;89.60
12819;DHT22;6474;53.474;9.894;2022-10-22T02:11:14;14.20;89.50
12819;DHT22;6474;53.474;9.894;2022-10-22T02:13:45;14.20;89.60
12819;DHT22;6474;53.474;9.894;2022-10-22T02:16:19;14.20;89.60
12819;DHT22;6474;53.474;9.894;2022-10-22T02:18:51;14.20;89.60
12819;DHT22;6474;53.474;9.894;2022-10-22T02:21:20;14.10;89.50
12819;DHT22;6474;53.474;9.894;2022-10-22T02:23:48;14.10;89.50
12819;DHT22;6474;53.474;9.894;2022-10-22T02:26:21;14.10;89.50
12819;DHT22;6474;53.474;9.894;2022-10-22T02:28:56;14.10;89.60
12819;DHT22;6474;53.474;9.894;2022-10-22T02:31:28;14.00;89.50
12819;DHT22;6474;53.474;9.894;2022-10-22T02:34:01;14.00;89.50
12819;DHT22;6474;53.474;9.894;2022-10-22T02:36:31;13.90;89.40
12819;DHT22;6474;53.474;9.894;2022-10-22T02:38:59;13.90;89.50
12819;DHT22;6474;53.474;9.894;2022-10-22T02:41:28;13.90;89.60
12819;DHT22;6474;53.474;9.894;2022-10-22T02:43:57;13.80;89.60
12819;DHT22;6474;53.474;9.894;2022-10-22T02:46:25;13.80;89.70
12819;DHT22;6474;53.474;9.894;2022-10-22T02:48:56;13.80;89.60
12819;DHT22;6474;53.474;9.894;2022-10-22T02:51:24;13.80;89.60
12819;DHT22;6474;53.474;9.894;2022-10-22T02:53:52;13.80;89.60
12819;DHT22;6474;53.474;9.894;2022-10-22T02:56:19;13.80;89.60
12819;DHT22;6474;53.474;9.894;2022-10-22T02:58:47;13.80;89.60
12819;DHT22;6474;53.474;9.894;2022-10-22T03:01:17;13.70;89.50
12819;DHT22;6474;53.474;9.894;2022-10-22T03:03:44;13.70;89.50
12819;DHT22;6474;53.474;9.894;2022-10-22T03:06:14;13.70;89.50
12819;DHT22;6474;53.474;9.894;2022-10-22T03:08:42;13.70;89.60
12819;DHT22;6474;53.474;9.894;2022-10-22T03:11:10;13.60;89.60
12819;DHT22;6474;53.474;9.894;2022-10-22T03:13:38;13.60;89.60
12819;DHT22;6474;53.474;9.894;2022-10-22T03:16:06;13.60;89.60
12819;DHT22;6474;53.474;9.894;2022-10-22T03:18:34;13.60;89.70
12819;DHT22;6474;53.474;9.894;2022-10-22T03:21:07;13.60;89.70
12819;DHT22;6474;53.474;9.894;2022-10-22T03:23:38;13.60;89.70
12819;DHT22;6474;53.474;9.894;2022-10-22T03:26:07;13.60;89.70
12819;DHT22;6474;53.474;9.894;2022-10-22T03:28:36;13.60;89.70
12819;DHT22;6474;53.474;9.894;2022-10-22T03:31:05;13.50;89.60
12819;DHT22;6474;53.474;9.894;2022-10-22T03:33:32;13.60;89.70
12819;DHT22;6474;53.474;9.894;2022-10-22T03:36:00;13.60;89.70
12819;DHT22;6474;53.474;9.894;2022-10-22T03:38:28;13.50;89.60
12819;DHT22;6474;53.474;9.894;2022-10-22T03:40:58;13.60;89.70
12819;DHT22;6474;53.474;9.894;2022-10-22T03:43:26;13.60;89.70
12819;DHT22;6474;53.474;9.894;2022-10-22T03:45:56;13.60;89.60
12819;DHT22;6474;53.474;9.894;2022-10-22T03:48:23;13.50;89.50
12819;DHT22;6474;53.474;9.894;2022-10-22T03:50:51;13.60;89.70
12819;DHT22;6474;53.474;9.894;2022-10-22T03:53:19;13.50;89.50
12819;DHT22;6474;53.474;9.894;2022-10-22T03:55:47;13.50;89.60
12819;DHT22;6474;53.474;9.894;2022-10-22T03:58:16;13.50;89.60
12819;DHT22;6474;53.474;9.894;2022-10-22T04:00:43;13.50;89.50
12819;DHT22;6474;53.474;9.894;2022-10-22T04:03:11;13.50;89.60
12819;DHT22;6474;53.474;9.894;2022-10-22T04:05:43;13.50;89.60
12819;DHT22;6474;53.474;9.894;2022-10-22T04:08:11;13.50;89.60
12819;DHT22;6474;53.474;9.894;2022-10-22T04:10:39;13.50;89.60
12819;DHT22;6474;53.474;9.894;2022-10-22T04:13:07;13.50;89.50
12819;DHT22;6474;53.474;9.894;2022-10-22T04:15:36;13.50;89.50
12819;DHT22;6474;53.474;9.894;2022-10-22T04:18:05;13.50;89.40
12819;DHT22;6474;53.474;9.894;2022-10-22T04:20:33;13.50;89.40
12819;DHT22;6474;53.474;9.894;2022-10-22T04:23:01;13.50;89.40
12819;DHT22;6474;53.474;9.894;2022-10-22T04:25:29;13.50;89.40
12819;DHT22;6474;53.474;9.894;2022-10-22T04:27:57;13.50;89.40
12819;DHT22;6474;53.474;9.894;2022-10-22T04:30:24;13.50;89.40
12819;DHT22;6474;53.474;9.894;2022-10-22T04:32:55;13.50;89.50
12819;DHT22;6474;53.474;9.894;2022-10-22T04:35:23;13.40;89.40
12819;DHT22;6474;53.474;9.894;2022-10-22T04:37:55;13.40;89.40
12819;DHT22;6474;53.474;9.894;2022-10-22T04:40:23;13.30;89.30
12819;DHT22;6474;53.474;9.894;2022-10-22T04:42:51;13.40;89.50
12819;DHT22;6474;53.474;9.894;2022-10-22T04:45:19;13.30;89.30
12819;DHT22;6474;53.474;9.894;2022-10-22T04:47:46;13.30;89.30
12819;DHT22;6474;53.474;9.894;2022-10-22T04:50:16;13.20;89.20
12819;DHT22;6474;53.474;9.894;2022-10-22T04:52:43;13.20;89.40
12819;DHT22;6474;53.474;9.894;2022-10-22T04:55:11;13.20;89.40
12819;DHT22;6474;53.474;9.894;2022-10-22T04:57:39;13.10;90.00
12819;DHT22;6474;53.474;9.894;2022-10-22T05:00:10;13.10;89.50
12819;DHT22;6474;53.474;9.894;2022-10-22T05:02:38;13.10;89.50
12819;DHT22;6474;53.474;9.894;2022-10-22T05:05:10;13.10;89.60
12819;DHT22;6474;53.474;9.894;2022-10-22T05:07:40;13.10;89.60
12819;DHT22;6474;53.474;9.894;2022-10-22T05:10:09;13.10;89.60
12819;DHT22;6474;53.474;9.894;2022-10-22T05:12:36;13.10;89.60
12819;DHT22;6474;53.474;9.894;2022-10-22T05:15:05;13.10;89.50
12819;DHT22;6474;53.474;9.894;2022-10-22T05:17:34;13.10;89.60
12819;DHT22;6474;53.474;9.894;2022-10-22T05:20:03;13.10;89.60
12819;DHT22;6474;53.474;9.894;2022-10-22T05:22:32;13.10;89.60
12819;DHT22;6474;53.474;9.894;2022-10-22T05:25:01;13.10;89.60
12819;DHT22;6474;53.474;9.894;2022-10-22T05:27:29;13.10;89.70
12819;DHT22;6474;53.474;9.894;2022-10-22T05:29:57;13.10;89.70
12819;DHT22;6474;53.474;9.894;2022-10-22T05:32:25;13.10;89.60
12819;DHT22;6474;53.474;9.894;2022-10-22T05:34:54;13.10;89.70
12819;DHT22;6474;53.474;9.894;2022-10-22T05:37:21;13.10;89.70
12819;DHT22;6474;53.474;9.894;2022-10-22T05:39:49;13.20;89.70
12819;DHT22;6474;53.474;9.894;2022-10-22T05:42:38;13.20;89.60
12819;DHT22;6474;53.474;9.894;2022-10-22T05:45:07;13.20;89.60
12819;DHT22;6474;53.474;9.894;2022-10-22T05:47:35;13.20;89.50
12819;DHT22;6474;53.474;9.894;2022-10-22T05:50:03;13.20;89.40
12819;DHT22;6474;53.474;9.894;2022-10-22T05:52:32;13.30;89.40
12819;DHT22;6474;53.474;9.894;2022-10-22T05:55:00;13.30;89.40
12819;DHT22;6474;53.474;9.894;2022-10-22T05:57:27;13.30;89.30
12819;DHT22;6474;53.474;9.894;2022-10-22T05:59:56;13.30;89.30
12819;DHT22;6474;53.474;9.894;2022-10-22T06:02:24;13.30;89.30
12819;DHT22;6474;53.474;9.894;2022-10-22T06:04:52;13.40;89.50
12819;DHT22;6474;53.474;9.894;2022-10-22T06:07:20;13.40;89.50
12819;DHT22;6474;53.474;9.894;2022-10-22T06:09:48;13.30;89.30
12819;DHT22;6474;53.474;9.894;2022-10-22T06:12:16;13.40;89.50
12819;DHT22;6474;53.474;9.894;2022-10-22T06:14:45;13.40;89.50
12819;DHT22;6474;53.474;9.894;2022-10-22T06:17:14;13.40;89.50
12819;DHT22;6474;53.474;9.894;2022-10-22T06:19:42;13.40;89.50
12819;DHT22;6474;53.474;9.894;2022-10-22T06:22:10;13.40;89.50
12819;DHT22;6474;53.474;9.894;2022-10-22T06:24:38;13.40;89.50
12819;DHT22;6474;53.474;9.894;2022-10-22T06:27:10;13.40;89.50
12819;DHT22;6474;53.474;9.894;2022-10-22T06:29:38;13.50;89.60
12819;DHT22;6474;53.474;9.894;2022-10-22T06:32:06;13.40;89.50
12819;DHT22;6474;53.474;9.894;2022-10-22T06:34:35;13.50;89.60
12819;DHT22;6474;53.474;9.894;2022-10-22T06:37:03;13.50;89.60
12819;DHT22;6474;53.474;9.894;2022-10-22T06:39:30;13.50;89.60
12819;DHT22;6474;53.474;9.894;2022-10-22T06:41:58;13.50;89.60
12819;DHT22;6474;53.474;9.894;2022-10-22T06:44:29;13.50;89.60
12819;DHT22;6474;53.474;9.894;2022-10-22T06:46:56;13.50;89.50
12819;DHT22;6474;53.474;9.894;2022-10-22T06:49:27;13.50;89.50
12819;DHT22;6474;53.474;9.894;2022-10-22T06:51:56;13.50;89.50
12819;DHT22;6474;53.474;9.894;2022-10-22T06:54:24;13.60;89.70
12819;DHT22;6474;53.474;9.894;2022-10-22T06:56:51;13.60;89.70
12819;DHT22;6474;53.474;9.894;2022-10-22T06:59:19;13.60;89.70
12819;DHT22;6474;53.474;9.894;2022-10-22T07:01:47;13.60;89.70
12819;DHT22;6474;53.474;9.894;2022-10-22T07:04:15;13.60;89.60
12819;DHT22;6474;53.474;9.894;2022-10-22T07:06:43;13.60;89.70
12819;DHT22;6474;53.474;9.894;2022-10-22T07:09:12;13.60;89.70
12819;DHT22;6474;53.474;9.894;2022-10-22T07:11:43;13.60;89.60
12819;DHT22;6474;53.474;9.894;2022-10-22T07:14:12;13.70;89.80
12819;DHT22;6474;53.474;9.894;2022-10-22T07:16:40;13.70;89.80
12819;DHT22;6474;53.474;9.894;2022-10-22T07:19:08;13.80;89.80
12819;DHT22;6474;53.474;9.894;2022-10-22T07:21:36;13.80;89.80
12819;DHT22;6474;53.474;9.894;2022-10-22T07:24:04;13.80;89.70
12819;DHT22;6474;53.474;9.894;2022-10-22T07:26:34;13.90;89.80
12819;DHT22;6474;53.474;9.894;2022-10-22T07:29:03;13.90;89.80
12819;DHT22;6474;53.474;9.894;2022-10-22T07:31:31;14.00;90.00
12819;DHT22;6474;53.474;9.894;2022-10-22T07:34:00;14.00;89.90
12819;DHT22;6474;53.474;9.894;2022-10-22T07:36:28;14.20;90.00
12819;DHT22;6474;53.474;9.894;2022-10-22T07:38:57;14.20;89.90
12819;DHT22;6474;53.474;9.894;2022-10-22T07:41:26;14.30;90.00
12819;DHT22;6474;53.474;9.894;2022-10-22T07:43:56;14.40;90.00
12819;DHT22;6474;53.474;9.894;2022-10-22T07:46:25;14.50;90.00
12819;DHT22;6474;53.474;9.894;2022-10-22T07:48:52;14.50;89.90
12819;DHT22;6474;53.474;9.894;2022-10-22T07:51:21;14.60;90.00
12819;DHT22;6474;53.474;9.894;2022-10-22T07:53:48;14.70;90.00
12819;DHT22;6474;53.474;9.894;2022-10-22T07:56:16;14.80;90.00
12819;DHT22;6474;53.474;9.894;2022-10-22T07:58:44;14.90;90.00
12819;DHT22;6474;53.474;9.894;2022-10-22T08:01:13;14.90;90.00
12819;DHT22;6474;53.474;9.894;2022-10-22T08:03:41;15.00;90.00
12819;DHT22;6474;53.474;9.894;2022-10-22T08:06:11;15.10;90.00
12819;DHT22;6474;53.474;9.894;2022-10-22T08:08:39;15.10;90.00
12819;DHT22;6474;53.474;9.894;2022-10-22T08:11:09;15.20;90.00
12819;DHT22;6474;53.474;9.894;2022-10-22T08:13:37;15.30;90.00
12819;DHT22;6474;53.474;9.894;2022-10-22T08:16:12;15.30;90.00
12819;DHT22;6474;53.474;9.894;2022-10-22T08:18:40;15.40;90.10
12819;DHT22;6474;53.474;9.894;2022-10-22T08:21:08;15.50;90.10
12819;DHT22;6474;53.474;9.894;2022-10-22T08:23:36;15.50;90.10
12819;DHT22;6474;53.474;9.894;2022-10-22T08:26:04;15.60;90.10
12819;DHT22;6474;53.474;9.894;2022-10-22T08:28:32;15.60;90.10
12819;DHT22;6474;53.474;9.894;2022-10-22T08:31:02;15.60;90.10
12819;DHT22;6474;53.474;9.894;2022-10-22T08:33:31;15.60;90.10
12819;DHT22;6474;53.474;9.894;2022-10-22T08:35:59;15.60;90.10
12819;DHT22;6474;53.474;9.894;2022-10-22T08:38:27;15.70;90.10
12819;DHT22;6474;53.474;9.894;2022-10-22T08:41:05;15.70;90.10
12819;DHT22;6474;53.474;9.894;2022-10-22T08:43:49;15.70;90.10
12819;DHT22;6474;53.474;9.894;2022-10-22T08:46:37;15.70;90.10
12819;DHT22;6474;53.474;9.894;2022-10-22T08:49:13;15.70;90.10
12819;DHT22;6474;53.474;9.894;2022-10-22T08:51:43;15.70;90.10
12819;DHT22;6474;53.474;9.894;2022-10-22T08:54:31;15.70;90.10
12819;DHT22;6474;53.474;9.894;2022-10-22T08:57:11;15.70;90.20
12819;DHT22;6474;53.474;9.894;2022-10-22T08:59:45;15.70;90.20
12819;DHT22;6474;53.474;9.894;2022-10-22T09:02:24;15.70;90.20
12819;DHT22;6474;53.474;9.894;2022-10-22T09:05:02;15.70;90.20
12819;DHT22;6474;53.474;9.894;2022-10-22T09:07:42;15.70;90.20
12819;DHT22;6474;53.474;9.894;2022-10-22T09:10:14;15.80;90.30
12819;DHT22;6474;53.474;9.894;2022-10-22T09:12:42;15.80;90.20
12819;DHT22;6474;53.474;9.894;2022-10-22T09:15:12;15.90;90.30
12819;DHT22;6474;53.474;9.894;2022-10-22T09:17:54;15.90;90.30
12819;DHT22;6474;53.474;9.894;2022-10-22T09:20:33;15.90;90.20
12819;DHT22;6474;53.474;9.894;2022-10-22T09:23:20;16.00;90.30
12819;DHT22;6474;53.474;9.894;2022-10-22T09:25:52;16.00;90.30
12819;DHT22;6474;53.474;9.894;2022-10-22T09:28:21;16.10;90.30
12819;DHT22;6474;53.474;9.894;2022-10-22T09:30:50;16.10;90.30
12819;DHT22;6474;53.474;9.894;2022-10-22T09:33:25;16.10;90.20
12819;DHT22;6474;53.474;9.894;2022-10-22T09:35:56;16.20;90.30
12819;DHT22;6474;53.474;9.894;2022-10-22T09:38:27;16.20;90.20
12819;DHT22;6474;53.474;9.894;2022-10-22T09:41:01;16.30;90.30
12819;DHT22;6474;53.474;9.894;2022-10-22T09:43:30;16.30;90.30
12819;DHT22;6474;53.474;9.894;2022-10-22T09:46:00;16.30;90.20
12819;DHT22;6474;53.474;9.894;2022-10-22T09:48:31;16.40;90.30
12819;DHT22;6474;53.474;9.894;2022-10-22T09:51:05;16.40;90.30
12819;DHT22;6474;53.474;9.894;2022-10-22T09:53:41;16.40;90.30
12819;DHT22;6474;53.474;9.894;2022-10-22T09:56:16;16.40;90.30
12819;DHT22;6474;53.474;9.894;2022-10-22T09:58:49;16.40;90.30
12819;DHT22;6474;53.474;9.894;2022-10-22T10:01:19;16.50;90.40
12819;DHT22;6474;53.474;9.894;2022-10-22T10:03:48;16.50;90.30
12819;DHT22;6474;53.474;9.894;2022-10-22T10:06:21;16.60;90.40
12819;DHT22;6474;53.474;9.894;2022-10-22T10:08:49;16.70;90.40
12819;DHT22;6474;53.474;9.894;2022-10-22T10:11:24;16.80;90.40
12819;DHT22;6474;53.474;9.894;2022-10-22T10:14:04;16.80;90.50
12819;DHT22;6474;53.474;9.894;2022-10-22T10:16:44;16.90;90.40
12819;DHT22;6474;53.474;9.894;2022-10-22T10:19:29;16.90;90.30
12819;DHT22;6474;53.474;9.894;2022-10-22T10:22:07;17.00;90.40
12819;DHT22;6474;53.474;9.894;2022-10-22T10:24:49;17.10;90.40
12819;DHT22;6474;53.474;9.894;2022-10-22T10:27:27;17.10;90.40
12819;DHT22;6474;53.474;9.894;2022-10-22T10:30:02;17.20;90.70
12819;DHT22;6474;53.474;9.894;2022-10-22T10:32:54;17.20;90.30
12819;DHT22;6474;53.474;9.894;2022-10-22T10:35:35;17.20;90.30
12819;DHT22;6474;53.474;9.894;2022-10-22T10:38:28;17.30;90.30
12819;DHT22;6474;53.474;9.894;2022-10-22T10:41:06;17.30;90.20
12819;DHT22;6474;53.474;9.894;2022-10-22T10:43:49;17.30;90.10
12819;DHT22;6474;53.474;9.894;2022-10-22T10:46:29;17.30;90.10
12819;DHT22;6474;53.474;9.894;2022-10-22T10:49:08;17.30;90.10
12819;DHT22;6474;53.474;9.894;2022-10-22T10:51:44;17.30;90.10
12819;DHT22;6474;53.474;9.894;2022-10-22T10:57:15;17.30;90.10
12819;DHT22;6474;53.474;9.894;2022-10-22T10:59:58;17.40;90.20
12819;DHT22;6474;53.474;9.894;2022-10-22T11:05:37;17.40;90.10
12819;DHT22;6474;53.474;9.894;2022-10-22T11:08:11;17.50;90.20
12819;DHT22;6474;53.474;9.894;2022-10-22T11:10:45;17.50;90.20
12819;DHT22;6474;53.474;9.894;2022-10-22T11:13:20;17.60;90.20
12819;DHT22;6474;53.474;9.894;2022-10-22T11:15:54;17.70;90.30
12819;DHT22;6474;53.474;9.894;2022-10-22T11:18:29;17.70;90.30
12819;DHT22;6474;53.474;9.894;2022-10-22T11:21:18;17.70;90.30
12819;DHT22;6474;53.474;9.894;2022-10-22T11:23:50;17.80;90.30
12819;DHT22;6474;53.474;9.894;2022-10-22T11:26:27;17.90;90.40
12819;DHT22;6474;53.474;9.894;2022-10-22T11:29:00;17.90;90.30
12819;DHT22;6474;53.474;9.894;2022-10-22T11:31:30;17.90;90.30
12819;DHT22;6474;53.474;9.894;2022-10-22T11:34:04;18.00;90.40
12819;DHT22;6474;53.474;9.894;2022-10-22T11:36:54;18.10;90.40
12819;DHT22;6474;53.474;9.894;2022-10-22T11:39:32;18.10;90.30
12819;DHT22;6474;53.474;9.894;2022-10-22T11:42:03;18.10;90.20
12819;DHT22;6474;53.474;9.894;2022-10-22T11:44:45;18.10;90.20
12819;DHT22;6474;53.474;9.894;2022-10-22T11:47:18;18.10;90.20
12819;DHT22;6474;53.474;9.894;2022-10-22T11:49:56;18.00;90.20
12819;DHT22;6474;53.474;9.894;2022-10-22T11:52:27;17.90;90.20
12819;DHT22;6474;53.474;9.894;2022-10-22T11:55:30;17.80;90.30
12819;DHT22;6474;53.474;9.894;2022-10-22T11:58:01;17.90;90.40
12819;DHT22;6474;53.474;9.894;2022-10-22T12:00:48;17.90;90.40
12819;DHT22;6474;53.474;9.894;2022-10-22T12:03:20;18.00;90.40
12819;DHT22;6474;53.474;9.894;2022-10-22T12:06:04;18.00;90.40
12819;DHT22;6474;53.474;9.894;2022-10-22T12:08:41;18.00;90.30
12819;DHT22;6474;53.474;9.894;2022-10-22T12:11:15;18.00;90.30
12819;DHT22;6474;53.474;9.894;2022-10-22T12:14:15;18.00;90.40
12819;DHT22;6474;53.474;9.894;2022-10-22T12:16:46;18.10;90.50
12819;DHT22;6474;53.474;9.894;2022-10-22T12:19:26;18.10;90.40
12819;DHT22;6474;53.474;9.894;2022-10-22T12:21:56;18.10;90.40
12819;DHT22;6474;53.474;9.894;2022-10-22T12:24:27;18.10;90.40
12819;DHT22;6474;53.474;9.894;2022-10-22T12:26:57;18.10;90.40
12819;DHT22;6474;53.474;9.894;2022-10-22T12:29:26;18.00;90.70
12819;DHT22;6474;53.474;9.894;2022-10-22T12:31:54;18.00;90.70
12819;DHT22;6474;53.474;9.894;2022-10-22T12:34:23;18.00;90.40
12819;DHT22;6474;53.474;9.894;2022-10-22T12:36:52;18.00;90.40
12819;DHT22;6474;53.474;9.894;2022-10-22T12:39:24;18.00;90.40
12819;DHT22;6474;53.474;9.894;2022-10-22T12:41:57;18.00;90.40
12819;DHT22;6474;53.474;9.894;2022-10-22T12:44:28;18.00;90.40
12819;DHT22;6474;53.474;9.894;2022-10-22T12:46:55;18.00;90.40
12819;DHT22;6474;53.474;9.894;2022-10-22T12:49:28;18.00;90.60
12819;DHT22;6474;53.474;9.894;2022-10-22T12:51:59;18.00;90.40
12819;DHT22;6474;53.474;9.894;2022-10-22T12:54:31;18.00;90.40
12819;DHT22;6474;53.474;9.894;2022-10-22T12:57:00;18.00;90.40
12819;DHT22;6474;53.474;9.894;2022-10-22T12:59:36;18.00;90.40
12819;DHT22;6474;53.474;9.894;2022-10-22T13:02:14;18.10;90.50
12819;DHT22;6474;53.474;9.894;2022-10-22T13:05:12;18.10;90.50
12819;DHT22;6474;53.474;9.894;2022-10-22T13:07:43;18.20;90.50
12819;DHT22;6474;53.474;9.894;2022-10-22T13:10:18;18.20;90.50
12819;DHT22;6474;53.474;9.894;2022-10-22T13:12:49;18.20;90.50
12819;DHT22;6474;53.474;9.894;2022-10-22T13:15:30;18.20;90.50
12819;DHT22;6474;53.474;9.894;2022-10-22T13:18:06;18.20;90.40
12819;DHT22;6474;53.474;9.894;2022-10-22T13:20:34;18.20;90.40
12819;DHT22;6474;53.474;9.894;2022-10-22T13:23:04;18.20;90.50
12819;DHT22;6474;53.474;9.894;2022-10-22T13:25:34;18.20;90.50
12819;DHT22;6474;53.474;9.894;2022-10-22T13:28:17;18.20;90.50
12819;DHT22;6474;53.474;9.894;2022-10-22T13:30:54;18.30;90.40
12819;DHT22;6474;53.474;9.894;2022-10-22T13:33:26;18.20;90.40
12819;DHT22;6474;53.474;9.894;2022-10-22T13:35:56;18.30;90.40
12819;DHT22;6474;53.474;9.894;2022-10-22T13:38:25;18.30;90.30
12819;DHT22;6474;53.474;9.894;2022-10-22T13:40:53;18.40;90.40
12819;DHT22;6474;53.474;9.894;2022-10-22T13:43:21;18.40;90.30
12819;DHT22;6474;53.474;9.894;2022-10-22T13:45:57;18.40;90.20
12819;DHT22;6474;53.474;9.894;2022-10-22T13:48:27;18.30;90.50
12819;DHT22;6474;53.474;9.894;2022-10-22T13:50:55;18.30;90.20
12819;DHT22;6474;53.474;9.894;2022-10-22T13:53:25;18.20;90.20
12819;DHT22;6474;53.474;9.894;2022-10-22T13:55:53;18.20;90.20
12819;DHT22;6474;53.474;9.894;2022-10-22T13:58:22;18.20;90.20
12819;DHT22;6474;53.474;9.894;2022-10-22T14:00:54;18.20;90.20
12819;DHT22;6474;53.474;9.894;2022-10-22T14:03:25;18.20;90.10
12819;DHT22;6474;53.474;9.894;2022-10-22T14:05:55;18.10;90.10
12819;DHT22;6474;53.474;9.894;2022-10-22T14:08:24;18.10;90.10
12819;DHT22;6474;53.474;9.894;2022-10-22T14:10:53;18.00;90.00
12819;DHT22;6474;53.474;9.894;2022-10-22T14:13:21;18.00;90.10
12819;DHT22;6474;53.474;9.894;2022-10-22T14:15:55;17.90;90.10
12819;DHT22;6474;53.474;9.894;2022-10-22T14:18:27;17.90;90.10
12819;DHT22;6474;53.474;9.894;2022-10-22T14:20:58;17.90;90.20
12819;DHT22;6474;53.474;9.894;2022-10-22T14:23:31;17.90;90.20
12819;DHT22;6474;53.474;9.894;2022-10-22T14:25:59;17.90;90.10
12819;DHT22;6474;53.474;9.894;2022-10-22T14:28:27;17.90;90.10
12819;DHT22;6474;53.474;9.894;2022-10-22T14:31:04;17.80;90.10
12819;DHT22;6474;53.474;9.894;2022-10-22T14:33:32;17.80;90.10
12819;DHT22;6474;53.474;9.894;2022-10-22T14:36:00;17.80;90.10
12819;DHT22;6474;53.474;9.894;2022-10-22T14:38:30;17.80;90.10
12819;DHT22;6474;53.474;9.894;2022-10-22T14:40:58;17.70;90.00
12819;DHT22;6474;53.474;9.894;2022-10-22T14:43:28;17.60;90.00
12819;DHT22;6474;53.474;9.894;2022-10-22T14:45:57;17.60;90.00
12819;DHT22;6474;53.474;9.894;2022-10-22T14:48:26;17.60;90.00
12819;DHT22;6474;53.474;9.894;2022-10-22T14:50:54;17.50;90.00
12819;DHT22;6474;53.474;9.894;2022-10-22T14:53:22;17.50;90.00
12819;DHT22;6474;53.474;9.894;2022-10-22T14:55:49;17.50;90.00
12819;DHT22;6474;53.474;9.894;2022-10-22T14:58:20;17.40;90.00
12819;DHT22;6474;53.474;9.894;2022-10-22T15:00:48;17.30;89.90
12819;DHT22;6474;53.474;9.894;2022-10-22T15:03:16;17.30;89.90
12819;DHT22;6474;53.474;9.894;2022-10-22T15:05:45;17.30;89.90
12819;DHT22;6474;53.474;9.894;2022-10-22T15:08:14;17.20;89.90
12819;DHT22;6474;53.474;9.894;2022-10-22T15:10:43;17.10;90.00
12819;DHT22;6474;53.474;9.894;2022-10-22T15:13:12;17.10;90.00
12819;DHT22;6474;53.474;9.894;2022-10-22T15:15:40;17.00;90.30
12819;DHT22;6474;53.474;9.894;2022-10-22T15:18:08;17.00;89.90
12819;DHT22;6474;53.474;9.894;2022-10-22T15:20:36;17.00;89.90
12819;DHT22;6474;53.474;9.894;2022-10-22T15:23:05;17.00;89.90
12819;DHT22;6474;53.474;9.894;2022-10-22T15:25:33;16.90;89.90
12819;DHT22;6474;53.474;9.894;2022-10-22T15:28:01;16.90;89.90
12819;DHT22;6474;53.474;9.894;2022-10-22T15:30:35;16.80;89.80
12819;DHT22;6474;53.474;9.894;2022-10-22T15:33:04;16.80;89.80
12819;DHT22;6474;53.474;9.894;2022-10-22T15:35:32;16.70;89.70
12819;DHT22;6474;53.474;9.894;2022-10-22T15:38:00;16.70;89.80
12819;DHT22;6474;53.474;9.894;2022-10-22T15:40:29;16.60;89.70
12819;DHT22;6474;53.474;9.894;2022-10-22T15:42:58;16.50;89.80
12819;DHT22;6474;53.474;9.894;2022-10-22T15:45:25;16.50;90.00
12819;DHT22;6474;53.474;9.894;2022-10-22T15:47:53;16.40;90.00
12819;DHT22;6474;53.474;9.894;2022-10-22T15:50:21;16.40;90.00
12819;DHT22;6474;53.474;9.894;2022-10-22T15:52:49;16.30;90.00
12819;DHT22;6474;53.474;9.894;2022-10-22T15:55:17;16.30;90.00
12819;DHT22;6474;53.474;9.894;2022-10-22T15:57:46;16.20;90.00
12819;DHT22;6474;53.474;9.894;2022-10-22T16:00:20;16.20;90.10
12819;DHT22;6474;53.474;9.894;2022-10-22T16:02:48;16.20;90.10
12819;DHT22;6474;53.474;9.894;2022-10-22T16:05:16;16.10;90.10
12819;DHT22;6474;53.474;9.894;2022-10-22T16:07:44;16.10;90.10
12819;DHT22;6474;53.474;9.894;2022-10-22T16:10:11;16.00;90.10
12819;DHT22;6474;53.474;9.894;2022-10-22T16:12:40;16.00;90.10
12819;DHT22;6474;53.474;9.894;2022-10-22T16:15:10;16.00;90.10
12819;DHT22;6474;53.474;9.894;2022-10-22T16:17:38;16.00;90.20
12819;DHT22;6474;53.474;9.894;2022-10-22T16:20:07;16.00;90.20